sensor_id;sensor_type;location;lat;lon;timestamp;temperature;humidity
11647;DHT22;5880;52.342;9.662;2023-05-17T00:00:15;12.80;51.00
11647;DHT22;5880;52.342;9.662;2023-05-17T00:02:41;12.70;51.20
11647;DHT22;5880;52.342;9.662;2023-05-17T00:05:07;12.70;51.40
11647;DHT22;5880;52.342;9.662;2023-05-17T00:07:36;12.70;51.70
11647;DHT22;5880;52.342;9.662;2023-05-17T00:10:02;12.70;51.80
11647;DHT22;5880;52.342;9.662;2023-05-17T00:12:28;12.70;51.80
11647;DHT22;5880;52.342;9.662;2023-05-17T00:14:54;12.60;52.00
11647;DHT22;5880;52.342;9.662;2023-05-17T00:17:19;12.70;52.40
11647;DHT22;5880;52.342;9.662;2023-05-17T00:19:45;12.70;52.40
11647;DHT22;5880;52.342;9.662;2023-05-17T00:22:10;12.70;52.40
11647;DHT22;5880;52.342;9.662;2023-05-17T00:24:36;12.70;52.30
11647;DHT22;5880;52.342;9.662;2023-05-17T00:27:02;12.80;52.10
11647;DHT22;5880;52.342;9.662;2023-05-17T00:29:28;12.80;52.10
11647;DHT22;5880;52.342;9.662;2023-05-17T00:31:53;13.70;52.70
11647;DHT22;5880;52.342;9.662;2023-05-17T00:34:19;12.80;52.00
11647;DHT22;5880;52.342;9.662;2023-05-17T00:36:45;12.80;52.10
11647;DHT22;5880;52.342;9.662;2023-05-17T00:39:10;12.70;52.10
11647;DHT22;5880;52.342;9.662;2023-05-17T00:41:36;12.80;52.10
11647;DHT22;5880;52.342;9.662;2023-05-17T00:44:02;12.70;52.20
11647;DHT22;5880;52.342;9.662;2023-05-17T00:46:27;12.70;52.30
11647;DHT22;5880;52.342;9.662;2023-05-17T00:48:53;12.70;52.40
11647;DHT22;5880;52.342;9.662;2023-05-17T00:51:20;12.70;52.50
11647;DHT22;5880;52.342;9.662;2023-05-17T00:53:46;12.90;52.80
11647;DHT22;5880;52.342;9.662;2023-05-17T00:56:12;12.70;52.60
11647;DHT22;5880;52.342;9.662;2023-05-17T00:58:38;12.60;52.50
11647;DHT22;5880;52.342;9.662;2023-05-17T01:01:05;13.00;52.90
11647;DHT22;5880;52.342;9.662;2023-05-17T01:03:31;13.20;52.90
11647;DHT22;5880;52.342;9.662;2023-05-17T01:05:57;12.60;52.50
11647;DHT22;5880;52.342;9.662;2023-05-17T01:08:22;12.60;52.70
11647;DHT22;5880;52.342;9.662;2023-05-17T01:13:54;12.50;53.90
11647;DHT22;5880;52.342;9.662;2023-05-17T01:16:48;12.50;54.10
11647;DHT22;5880;52.342;9.662;2023-05-17T01:19:32;12.50;54.60
11647;DHT22;5880;52.342;9.662;2023-05-17T01:28:05;12.50;54.70
11647;DHT22;5880;52.342;9.662;2023-05-17T01:30:32;12.40;53.00
11647;DHT22;5880;52.342;9.662;2023-05-17T01:33:01;12.40;53.10
11647;DHT22;5880;52.342;9.662;2023-05-17T01:35:29;12.40;53.40
11647;DHT22;5880;52.342;9.662;2023-05-17T01:37:55;12.40;53.30
11647;DHT22;5880;52.342;9.662;2023-05-17T01:40:21;12.40;53.60
11647;DHT22;5880;52.342;9.662;2023-05-17T01:42:53;12.30;53.70
11647;DHT22;5880;52.342;9.662;2023-05-17T01:45:33;12.40;54.40
11647;DHT22;5880;52.342;9.662;2023-05-17T01:48:20;12.30;54.30
11647;DHT22;5880;52.342;9.662;2023-05-17T01:50:51;12.30;55.30
11647;DHT22;5880;52.342;9.662;2023-05-17T01:53:30;12.30;54.30
11647;DHT22;5880;52.342;9.662;2023-05-17T01:56:31;12.30;55.10
11647;DHT22;5880;52.342;9.662;2023-05-17T01:58:59;12.30;56.10
11647;DHT22;5880;52.342;9.662;2023-05-17T02:01:29;12.30;54.30
11647;DHT22;5880;52.342;9.662;2023-05-17T02:03:57;12.30;54.70
11647;DHT22;5880;52.342;9.662;2023-05-17T02:06:24;12.30;54.60
11647;DHT22;5880;52.342;9.662;2023-05-17T02:08:50;12.30;54.60
11647;DHT22;5880;52.342;9.662;2023-05-17T02:11:16;12.30;54.90
11647;DHT22;5880;52.342;9.662;2023-05-17T02:13:41;12.30;55.00
11647;DHT22;5880;52.342;9.662;2023-05-17T02:16:07;12.30;55.20
11647;DHT22;5880;52.342;9.662;2023-05-17T02:18:33;12.30;55.20
11647;DHT22;5880;52.342;9.662;2023-05-17T02:21:00;12.30;56.00
11647;DHT22;5880;52.342;9.662;2023-05-17T02:23:25;12.40;55.40
11647;DHT22;5880;52.342;9.662;2023-05-17T02:25:51;12.40;55.40
11647;DHT22;5880;52.342;9.662;2023-05-17T02:28:17;12.40;55.40
11647;DHT22;5880;52.342;9.662;2023-05-17T02:30:43;12.40;55.40
11647;DHT22;5880;52.342;9.662;2023-05-17T02:33:10;12.50;55.40
11647;DHT22;5880;52.342;9.662;2023-05-17T02:35:35;12.50;55.40
11647;DHT22;5880;52.342;9.662;2023-05-17T02:38:01;12.50;55.40
11647;DHT22;5880;52.342;9.662;2023-05-17T02:40:27;12.50;55.50
11647;DHT22;5880;52.342;9.662;2023-05-17T02:42:52;12.50;55.60
11647;DHT22;5880;52.342;9.662;2023-05-17T02:45:18;12.50;55.80
11647;DHT22;5880;52.342;9.662;2023-05-17T02:47:44;12.60;55.80
11647;DHT22;5880;52.342;9.662;2023-05-17T02:50:09;12.60;56.00
11647;DHT22;5880;52.342;9.662;2023-05-17T02:52:35;12.60;56.10
11647;DHT22;5880;52.342;9.662;2023-05-17T02:55:01;12.60;56.10
11647;DHT22;5880;52.342;9.662;2023-05-17T02:57:27;12.60;56.40
11647;DHT22;5880;52.342;9.662;2023-05-17T02:59:52;12.60;56.40
11647;DHT22;5880;52.342;9.662;2023-05-17T03:02:18;12.60;56.30
11647;DHT22;5880;52.342;9.662;2023-05-17T03:04:44;12.60;56.20
11647;DHT22;5880;52.342;9.662;2023-05-17T03:07:09;12.60;56.00
11647;DHT22;5880;52.342;9.662;2023-05-17T03:09:35;12.50;56.10
11647;DHT22;5880;52.342;9.662;2023-05-17T03:12:02;12.50;56.00
11647;DHT22;5880;52.342;9.662;2023-05-17T03:14:28;12.50;55.90
11647;DHT22;5880;52.342;9.662;2023-05-17T03:16:55;12.50;55.90
11647;DHT22;5880;52.342;9.662;2023-05-17T03:19:20;12.40;55.70
11647;DHT22;5880;52.342;9.662;2023-05-17T03:21:46;12.40;55.70
11647;DHT22;5880;52.342;9.662;2023-05-17T03:24:12;12.40;55.90
11647;DHT22;5880;52.342;9.662;2023-05-17T03:26:37;12.40;55.90
11647;DHT22;5880;52.342;9.662;2023-05-17T03:29:03;12.30;56.00
11647;DHT22;5880;52.342;9.662;2023-05-17T03:31:29;12.30;56.00
11647;DHT22;5880;52.342;9.662;2023-05-17T03:33:55;12.30;56.10
11647;DHT22;5880;52.342;9.662;2023-05-17T03:36:21;12.30;56.20
11647;DHT22;5880;52.342;9.662;2023-05-17T03:38:46;12.30;56.30
11647;DHT22;5880;52.342;9.662;2023-05-17T03:41:12;12.20;56.80
11647;DHT22;5880;52.342;9.662;2023-05-17T03:43:38;12.30;56.30
11647;DHT22;5880;52.342;9.662;2023-05-17T03:46:03;12.20;56.30
11647;DHT22;5880;52.342;9.662;2023-05-17T03:48:30;12.20;56.20
11647;DHT22;5880;52.342;9.662;2023-05-17T03:50:55;12.20;56.30
11647;DHT22;5880;52.342;9.662;2023-05-17T03:53:21;12.20;56.50
11647;DHT22;5880;52.342;9.662;2023-05-17T03:55:47;12.10;56.60
11647;DHT22;5880;52.342;9.662;2023-05-17T03:58:13;12.20;56.70
11647;DHT22;5880;52.342;9.662;2023-05-17T04:00:38;12.10;56.60
11647;DHT22;5880;52.342;9.662;2023-05-17T04:03:04;12.10;56.70
11647;DHT22;5880;52.342;9.662;2023-05-17T04:05:30;12.20;56.70
11647;DHT22;5880;52.342;9.662;2023-05-17T04:07:57;12.10;56.70
11647;DHT22;5880;52.342;9.662;2023-05-17T04:10:22;12.10;56.80
11647;DHT22;5880;52.342;9.662;2023-05-17T04:12:48;12.10;56.80
11647;DHT22;5880;52.342;9.662;2023-05-17T04:15:14;12.10;56.70
11647;DHT22;5880;52.342;9.662;2023-05-17T04:17:40;12.10;56.80
11647;DHT22;5880;52.342;9.662;2023-05-17T04:20:06;12.10;56.20
11647;DHT22;5880;52.342;9.662;2023-05-17T04:22:32;12.10;57.00
11647;DHT22;5880;52.342;9.662;2023-05-17T04:24:58;12.20;56.90
11647;DHT22;5880;52.342;9.662;2023-05-17T04:27:23;12.20;56.80
11647;DHT22;5880;52.342;9.662;2023-05-17T04:29:49;12.20;56.90
11647;DHT22;5880;52.342;9.662;2023-05-17T04:32:16;12.20;56.90
11647;DHT22;5880;52.342;9.662;2023-05-17T04:34:43;12.30;57.30
11647;DHT22;5880;52.342;9.662;2023-05-17T04:37:08;12.30;57.10
11647;DHT22;5880;52.342;9.662;2023-05-17T04:39:34;12.60;57.30
11647;DHT22;5880;52.342;9.662;2023-05-17T04:42:00;12.30;57.20
11647;DHT22;5880;52.342;9.662;2023-05-17T04:44:26;12.40;57.20
11647;DHT22;5880;52.342;9.662;2023-05-17T04:46:52;12.40;57.20
11647;DHT22;5880;52.342;9.662;2023-05-17T04:49:17;12.50;57.30
11647;DHT22;5880;52.342;9.662;2023-05-17T04:51:43;12.50;57.10
11647;DHT22;5880;52.342;9.662;2023-05-17T04:54:09;12.50;57.20
11647;DHT22;5880;52.342;9.662;2023-05-17T04:56:35;12.60;57.30
11647;DHT22;5880;52.342;9.662;2023-05-17T04:59:01;12.60;58.10
11647;DHT22;5880;52.342;9.662;2023-05-17T05:01:27;12.70;57.40
11647;DHT22;5880;52.342;9.662;2023-05-17T05:03:56;12.70;57.30
11647;DHT22;5880;52.342;9.662;2023-05-17T05:06:22;12.80;57.50
11647;DHT22;5880;52.342;9.662;2023-05-17T05:08:48;12.80;57.50
11647;DHT22;5880;52.342;9.662;2023-05-17T05:11:14;12.90;57.60
11647;DHT22;5880;52.342;9.662;2023-05-17T05:13:39;13.00;57.50
11647;DHT22;5880;52.342;9.662;2023-05-17T05:16:06;13.10;57.60
11647;DHT22;5880;52.342;9.662;2023-05-17T05:18:32;13.20;57.30
11647;DHT22;5880;52.342;9.662;2023-05-17T05:20:58;13.20;57.10
11647;DHT22;5880;52.342;9.662;2023-05-17T05:23:24;13.40;57.00
11647;DHT22;5880;52.342;9.662;2023-05-17T05:25:49;13.40;57.10
11647;DHT22;5880;52.342;9.662;2023-05-17T05:28:15;13.60;57.00
11647;DHT22;5880;52.342;9.662;2023-05-17T05:30:41;13.60;56.90
11647;DHT22;5880;52.342;9.662;2023-05-17T05:33:07;13.70;57.00
11647;DHT22;5880;52.342;9.662;2023-05-17T05:35:32;13.90;57.60
11647;DHT22;5880;52.342;9.662;2023-05-17T05:37:58;14.10;59.00
11647;DHT22;5880;52.342;9.662;2023-05-17T05:40:24;14.40;60.20
11647;DHT22;5880;52.342;9.662;2023-05-17T05:42:50;14.80;61.20
11647;DHT22;5880;52.342;9.662;2023-05-17T05:45:17;15.30;61.20
11647;DHT22;5880;52.342;9.662;2023-05-17T05:47:43;15.80;61.30
11647;DHT22;5880;52.342;9.662;2023-05-17T05:50:09;16.30;61.50
11647;DHT22;5880;52.342;9.662;2023-05-17T05:52:35;16.80;61.40
11647;DHT22;5880;52.342;9.662;2023-05-17T05:55:01;17.30;60.70
11647;DHT22;5880;52.342;9.662;2023-05-17T05:57:27;17.80;60.40
11647;DHT22;5880;52.342;9.662;2023-05-17T05:59:53;18.30;59.10
11647;DHT22;5880;52.342;9.662;2023-05-17T06:02:18;18.80;58.10
11647;DHT22;5880;52.342;9.662;2023-05-17T06:04:46;19.30;55.90
11647;DHT22;5880;52.342;9.662;2023-05-17T06:07:13;19.70;54.60
11647;DHT22;5880;52.342;9.662;2023-05-17T06:09:39;20.00;52.70
11647;DHT22;5880;52.342;9.662;2023-05-17T06:12:06;20.30;52.00
11647;DHT22;5880;52.342;9.662;2023-05-17T06:14:32;20.50;51.80
11647;DHT22;5880;52.342;9.662;2023-05-17T06:16:58;20.70;49.80
11647;DHT22;5880;52.342;9.662;2023-05-17T06:19:23;20.90;48.10
11647;DHT22;5880;52.342;9.662;2023-05-17T06:21:49;21.00;47.00
11647;DHT22;5880;52.342;9.662;2023-05-17T06:24:15;21.00;46.60
11647;DHT22;5880;52.342;9.662;2023-05-17T06:26:41;21.00;44.60
11647;DHT22;5880;52.342;9.662;2023-05-17T06:29:08;21.00;44.90
11647;DHT22;5880;52.342;9.662;2023-05-17T06:31:34;21.00;45.20
11647;DHT22;5880;52.342;9.662;2023-05-17T06:34:00;20.90;44.10
11647;DHT22;5880;52.342;9.662;2023-05-17T06:36:26;20.90;44.40
11647;DHT22;5880;52.342;9.662;2023-05-17T06:38:51;20.90;45.20
11647;DHT22;5880;52.342;9.662;2023-05-17T06:41:17;21.00;45.60
11647;DHT22;5880;52.342;9.662;2023-05-17T06:43:44;21.20;45.20
11647;DHT22;5880;52.342;9.662;2023-05-17T06:46:10;21.40;45.70
11647;DHT22;5880;52.342;9.662;2023-05-17T06:48:36;21.70;45.60
11647;DHT22;5880;52.342;9.662;2023-05-17T06:51:01;21.90;43.40
11647;DHT22;5880;52.342;9.662;2023-05-17T06:53:27;22.00;42.20
11647;DHT22;5880;52.342;9.662;2023-05-17T06:55:53;22.00;42.80
11647;DHT22;5880;52.342;9.662;2023-05-17T06:58:18;22.20;42.60
11647;DHT22;5880;52.342;9.662;2023-05-17T07:00:44;22.10;39.90
11647;DHT22;5880;52.342;9.662;2023-05-17T07:03:10;22.10;40.10
11647;DHT22;5880;52.342;9.662;2023-05-17T07:05:36;22.00;39.60
11647;DHT22;5880;52.342;9.662;2023-05-17T07:08:01;22.00;38.90
11647;DHT22;5880;52.342;9.662;2023-05-17T07:10:27;21.80;39.30
11647;DHT22;5880;52.342;9.662;2023-05-17T07:12:53;21.70;38.70
11647;DHT22;5880;52.342;9.662;2023-05-17T07:15:18;21.50;39.00
11647;DHT22;5880;52.342;9.662;2023-05-17T07:17:44;21.40;38.40
11647;DHT22;5880;52.342;9.662;2023-05-17T07:20:10;21.20;37.90
11647;DHT22;5880;52.342;9.662;2023-05-17T07:22:37;20.90;37.50
11647;DHT22;5880;52.342;9.662;2023-05-17T07:25:03;20.70;36.80
11647;DHT22;5880;52.342;9.662;2023-05-17T07:27:29;20.40;37.50
11647;DHT22;5880;52.342;9.662;2023-05-17T07:29:55;20.10;37.80
11647;DHT22;5880;52.342;9.662;2023-05-17T07:32:21;20.00;37.30
11647;DHT22;5880;52.342;9.662;2023-05-17T07:34:46;19.80;37.00
11647;DHT22;5880;52.342;9.662;2023-05-17T07:37:12;19.60;37.40
11647;DHT22;5880;52.342;9.662;2023-05-17T07:39:38;19.40;38.00
11647;DHT22;5880;52.342;9.662;2023-05-17T07:42:03;19.20;37.20
11647;DHT22;5880;52.342;9.662;2023-05-17T07:44:30;18.90;37.00
11647;DHT22;5880;52.342;9.662;2023-05-17T07:46:56;18.70;37.30
11647;DHT22;5880;52.342;9.662;2023-05-17T07:49:22;18.40;37.60
11647;DHT22;5880;52.342;9.662;2023-05-17T07:51:48;18.30;38.90
11647;DHT22;5880;52.342;9.662;2023-05-17T07:54:22;18.30;39.10
11647;DHT22;5880;52.342;9.662;2023-05-17T07:56:49;18.20;38.20
11647;DHT22;5880;52.342;9.662;2023-05-17T07:59:17;18.20;38.60
11647;DHT22;5880;52.342;9.662;2023-05-17T08:01:43;18.20;38.80
11647;DHT22;5880;52.342;9.662;2023-05-17T08:04:09;18.20;38.50
11647;DHT22;5880;52.342;9.662;2023-05-17T08:06:35;18.20;38.30
11647;DHT22;5880;52.342;9.662;2023-05-17T08:09:01;18.10;38.20
11647;DHT22;5880;52.342;9.662;2023-05-17T08:11:27;18.00;37.90
11647;DHT22;5880;52.342;9.662;2023-05-17T08:13:52;17.90;37.90
11647;DHT22;5880;52.342;9.662;2023-05-17T08:16:18;17.80;38.10
11647;DHT22;5880;52.342;9.662;2023-05-17T08:18:44;17.70;38.10
11647;DHT22;5880;52.342;9.662;2023-05-17T08:21:09;17.60;38.20
11647;DHT22;5880;52.342;9.662;2023-05-17T08:23:35;17.50;38.20
11647;DHT22;5880;52.342;9.662;2023-05-17T08:26:01;17.50;38.50
11647;DHT22;5880;52.342;9.662;2023-05-17T08:28:26;17.40;38.40
11647;DHT22;5880;52.342;9.662;2023-05-17T08:30:52;17.40;38.40
11647;DHT22;5880;52.342;9.662;2023-05-17T08:33:18;17.30;38.50
11647;DHT22;5880;52.342;9.662;2023-05-17T08:35:46;17.30;38.30
11647;DHT22;5880;52.342;9.662;2023-05-17T08:38:13;17.20;38.50
11647;DHT22;5880;52.342;9.662;2023-05-17T08:40:38;17.20;38.50
11647;DHT22;5880;52.342;9.662;2023-05-17T08:43:05;17.10;38.60
11647;DHT22;5880;52.342;9.662;2023-05-17T08:45:33;17.00;38.70
11647;DHT22;5880;52.342;9.662;2023-05-17T08:48:01;16.90;39.00
11647;DHT22;5880;52.342;9.662;2023-05-17T08:50:28;16.80;39.10
11647;DHT22;5880;52.342;9.662;2023-05-17T08:52:55;16.80;39.20
11647;DHT22;5880;52.342;9.662;2023-05-17T08:55:22;16.80;39.70
11647;DHT22;5880;52.342;9.662;2023-05-17T08:57:49;16.90;39.80
11647;DHT22;5880;52.342;9.662;2023-05-17T09:00:20;16.90;39.70
11647;DHT22;5880;52.342;9.662;2023-05-17T09:02:50;16.90;40.30
11647;DHT22;5880;52.342;9.662;2023-05-17T09:05:15;16.80;39.50
11647;DHT22;5880;52.342;9.662;2023-05-17T09:07:41;16.80;39.20
11647;DHT22;5880;52.342;9.662;2023-05-17T09:10:08;16.80;39.30
11647;DHT22;5880;52.342;9.662;2023-05-17T09:12:34;16.70;39.10
11647;DHT22;5880;52.342;9.662;2023-05-17T09:15:17;16.70;39.10
11647;DHT22;5880;52.342;9.662;2023-05-17T09:17:51;16.80;39.00
11647;DHT22;5880;52.342;9.662;2023-05-17T09:20:28;16.80;39.10
11647;DHT22;5880;52.342;9.662;2023-05-17T09:23:01;16.80;38.60
11647;DHT22;5880;52.342;9.662;2023-05-17T09:25:29;16.80;39.80
11647;DHT22;5880;52.342;9.662;2023-05-17T09:28:03;16.90;39.50
11647;DHT22;5880;52.342;9.662;2023-05-17T09:30:33;16.90;39.20
11647;DHT22;5880;52.342;9.662;2023-05-17T09:33:09;16.90;38.90
11647;DHT22;5880;52.342;9.662;2023-05-17T09:35:36;16.90;38.50
11647;DHT22;5880;52.342;9.662;2023-05-17T09:38:10;17.00;38.80
11647;DHT22;5880;52.342;9.662;2023-05-17T09:40:41;17.00;38.10
11647;DHT22;5880;52.342;9.662;2023-05-17T09:43:08;17.10;38.80
11647;DHT22;5880;52.342;9.662;2023-05-17T09:45:36;17.10;39.00
11647;DHT22;5880;52.342;9.662;2023-05-17T09:48:16;17.20;38.60
11647;DHT22;5880;52.342;9.662;2023-05-17T09:50:47;17.30;38.10
11647;DHT22;5880;52.342;9.662;2023-05-17T09:53:31;17.30;38.00
11647;DHT22;5880;52.342;9.662;2023-05-17T09:55:59;17.30;37.10
11647;DHT22;5880;52.342;9.662;2023-05-17T09:58:30;17.30;37.90
11647;DHT22;5880;52.342;9.662;2023-05-17T10:01:04;17.20;37.90
11647;DHT22;5880;52.342;9.662;2023-05-17T10:03:32;17.30;38.10
11647;DHT22;5880;52.342;9.662;2023-05-17T10:06:06;17.30;38.60
11647;DHT22;5880;52.342;9.662;2023-05-17T10:08:34;17.30;38.60
11647;DHT22;5880;52.342;9.662;2023-05-17T10:11:07;17.30;38.50
11647;DHT22;5880;52.342;9.662;2023-05-17T10:13:57;17.30;38.80
11647;DHT22;5880;52.342;9.662;2023-05-17T10:16:32;17.40;38.40
11647;DHT22;5880;52.342;9.662;2023-05-17T10:18:59;17.30;38.20
11647;DHT22;5880;52.342;9.662;2023-05-17T10:21:27;17.30;38.40
11647;DHT22;5880;52.342;9.662;2023-05-17T10:23:54;17.40;38.60
11647;DHT22;5880;52.342;9.662;2023-05-17T10:26:21;17.30;38.50
11647;DHT22;5880;52.342;9.662;2023-05-17T10:28:47;17.30;38.30
11647;DHT22;5880;52.342;9.662;2023-05-17T10:31:16;17.30;38.20
11647;DHT22;5880;52.342;9.662;2023-05-17T10:33:45;17.30;38.20
11647;DHT22;5880;52.342;9.662;2023-05-17T10:36:16;17.20;37.80
11647;DHT22;5880;52.342;9.662;2023-05-17T10:38:42;17.30;37.90
11647;DHT22;5880;52.342;9.662;2023-05-17T10:41:12;17.20;38.10
11647;DHT22;5880;52.342;9.662;2023-05-17T10:43:43;17.30;37.70
11647;DHT22;5880;52.342;9.662;2023-05-17T10:46:14;17.30;38.30
11647;DHT22;5880;52.342;9.662;2023-05-17T10:48:41;17.30;37.80
11647;DHT22;5880;52.342;9.662;2023-05-17T10:51:10;17.30;37.60
11647;DHT22;5880;52.342;9.662;2023-05-17T10:56:41;17.30;36.90
11647;DHT22;5880;52.342;9.662;2023-05-17T10:59:16;17.30;37.30
11647;DHT22;5880;52.342;9.662;2023-05-17T11:01:52;17.20;37.30
11647;DHT22;5880;52.342;9.662;2023-05-17T11:04:24;17.30;37.10
11647;DHT22;5880;52.342;9.662;2023-05-17T11:07:19;17.30;37.30
11647;DHT22;5880;52.342;9.662;2023-05-17T11:12:48;17.30;37.70
11647;DHT22;5880;52.342;9.662;2023-05-17T11:15:22;17.30;37.70
11647;DHT22;5880;52.342;9.662;2023-05-17T11:17:50;17.40;37.60
11647;DHT22;5880;52.342;9.662;2023-05-17T11:22:55;17.50;37.10
11647;DHT22;5880;52.342;9.662;2023-05-17T11:25:26;17.70;37.50
11647;DHT22;5880;52.342;9.662;2023-05-17T11:27:57;17.60;37.10
11647;DHT22;5880;52.342;9.662;2023-05-17T11:30:28;17.70;37.80
11647;DHT22;5880;52.342;9.662;2023-05-17T11:33:05;17.70;37.80
11647;DHT22;5880;52.342;9.662;2023-05-17T11:35:33;17.70;37.90
11647;DHT22;5880;52.342;9.662;2023-05-17T11:38:20;17.70;38.20
11647;DHT22;5880;52.342;9.662;2023-05-17T11:40:53;17.90;37.30
11647;DHT22;5880;52.342;9.662;2023-05-17T11:43:20;17.90;37.70
11647;DHT22;5880;52.342;9.662;2023-05-17T11:45:51;18.00;37.30
11647;DHT22;5880;52.342;9.662;2023-05-17T11:48:20;17.90;37.30
11647;DHT22;5880;52.342;9.662;2023-05-17T11:50:48;18.00;37.00
11647;DHT22;5880;52.342;9.662;2023-05-17T11:53:16;18.00;37.30
11647;DHT22;5880;52.342;9.662;2023-05-17T11:55:44;18.00;36.90
11647;DHT22;5880;52.342;9.662;2023-05-17T11:58:16;17.90;36.70
11647;DHT22;5880;52.342;9.662;2023-05-17T12:00:43;18.00;36.90
11647;DHT22;5880;52.342;9.662;2023-05-17T12:03:23;17.90;36.50
11647;DHT22;5880;52.342;9.662;2023-05-17T12:06:11;17.80;36.00
11647;DHT22;5880;52.342;9.662;2023-05-17T12:08:42;17.80;36.50
11647;DHT22;5880;52.342;9.662;2023-05-17T12:11:16;17.80;36.60
11647;DHT22;5880;52.342;9.662;2023-05-17T12:13:43;17.80;36.00
11647;DHT22;5880;52.342;9.662;2023-05-17T12:16:14;17.80;36.60
11647;DHT22;5880;52.342;9.662;2023-05-17T12:18:43;17.80;36.00
11647;DHT22;5880;52.342;9.662;2023-05-17T12:21:13;17.80;36.30
11647;DHT22;5880;52.342;9.662;2023-05-17T12:23:41;17.70;36.50
11647;DHT22;5880;52.342;9.662;2023-05-17T12:26:10;17.70;36.20
11647;DHT22;5880;52.342;9.662;2023-05-17T12:28:38;17.50;36.10
11647;DHT22;5880;52.342;9.662;2023-05-17T12:31:19;17.60;36.50
11647;DHT22;5880;52.342;9.662;2023-05-17T12:33:49;17.60;37.10
11647;DHT22;5880;52.342;9.662;2023-05-17T12:36:16;17.60;38.00
11647;DHT22;5880;52.342;9.662;2023-05-17T12:38:43;17.70;37.20
11647;DHT22;5880;52.342;9.662;2023-05-17T12:41:12;17.80;37.20
11647;DHT22;5880;52.342;9.662;2023-05-17T12:43:40;17.80;36.70
11647;DHT22;5880;52.342;9.662;2023-05-17T12:46:16;17.80;36.00
11647;DHT22;5880;52.342;9.662;2023-05-17T12:48:44;17.80;35.50
11647;DHT22;5880;52.342;9.662;2023-05-17T12:51:17;17.70;35.70
11647;DHT22;5880;52.342;9.662;2023-05-17T12:53:55;17.70;35.60
11647;DHT22;5880;52.342;9.662;2023-05-17T12:56:27;17.70;35.50
11647;DHT22;5880;52.342;9.662;2023-05-17T12:59:14;17.60;35.80
11647;DHT22;5880;52.342;9.662;2023-05-17T13:01:49;17.60;35.40
11647;DHT22;5880;52.342;9.662;2023-05-17T13:04:20;17.60;36.40
11647;DHT22;5880;52.342;9.662;2023-05-17T13:07:01;17.60;36.40
11647;DHT22;5880;52.342;9.662;2023-05-17T13:09:29;17.70;36.80
11647;DHT22;5880;52.342;9.662;2023-05-17T13:12:02;17.70;36.70
11647;DHT22;5880;52.342;9.662;2023-05-17T13:14:45;17.80;36.20
11647;DHT22;5880;52.342;9.662;2023-05-17T13:19:46;17.80;36.00
11647;DHT22;5880;52.342;9.662;2023-05-17T13:22:12;17.70;35.70
11647;DHT22;5880;52.342;9.662;2023-05-17T13:24:40;17.70;36.10
11647;DHT22;5880;52.342;9.662;2023-05-17T13:27:07;17.70;36.60
11647;DHT22;5880;52.342;9.662;2023-05-17T13:29:35;17.80;36.50
11647;DHT22;5880;52.342;9.662;2023-05-17T13:32:02;17.80;36.10
11647;DHT22;5880;52.342;9.662;2023-05-17T13:34:28;17.80;36.00
11647;DHT22;5880;52.342;9.662;2023-05-17T13:36:54;17.80;35.80
11647;DHT22;5880;52.342;9.662;2023-05-17T13:39:21;17.80;35.70
11647;DHT22;5880;52.342;9.662;2023-05-17T13:41:47;17.80;35.90
11647;DHT22;5880;52.342;9.662;2023-05-17T13:44:13;17.80;35.60
11647;DHT22;5880;52.342;9.662;2023-05-17T13:46:39;17.70;35.80
11647;DHT22;5880;52.342;9.662;2023-05-17T13:49:04;17.70;35.80
11647;DHT22;5880;52.342;9.662;2023-05-17T13:51:32;17.70;35.70
11647;DHT22;5880;52.342;9.662;2023-05-17T13:54:02;17.70;35.50
11647;DHT22;5880;52.342;9.662;2023-05-17T13:56:28;17.70;35.70
11647;DHT22;5880;52.342;9.662;2023-05-17T13:58:54;17.70;35.70
11647;DHT22;5880;52.342;9.662;2023-05-17T14:01:19;17.70;35.40
11647;DHT22;5880;52.342;9.662;2023-05-17T14:03:45;17.70;35.90
11647;DHT22;5880;52.342;9.662;2023-05-17T14:06:11;17.70;36.30
11647;DHT22;5880;52.342;9.662;2023-05-17T14:08:37;17.70;35.80
11647;DHT22;5880;52.342;9.662;2023-05-17T14:11:02;17.70;35.80
11647;DHT22;5880;52.342;9.662;2023-05-17T14:13:28;17.80;35.80
11647;DHT22;5880;52.342;9.662;2023-05-17T14:15:54;17.80;35.60
11647;DHT22;5880;52.342;9.662;2023-05-17T14:18:20;17.70;35.70
11647;DHT22;5880;52.342;9.662;2023-05-17T14:20:45;17.70;36.00
11647;DHT22;5880;52.342;9.662;2023-05-17T14:23:11;17.70;36.00
11647;DHT22;5880;52.342;9.662;2023-05-17T14:25:37;17.70;36.10
11647;DHT22;5880;52.342;9.662;2023-05-17T14:28:03;17.70;36.00
11647;DHT22;5880;52.342;9.662;2023-05-17T14:30:28;17.70;35.70
11647;DHT22;5880;52.342;9.662;2023-05-17T14:32:54;17.70;35.80
11647;DHT22;5880;52.342;9.662;2023-05-17T14:35:20;17.70;36.00
11647;DHT22;5880;52.342;9.662;2023-05-17T14:37:45;17.60;35.80
11647;DHT22;5880;52.342;9.662;2023-05-17T14:40:11;17.60;35.40
11647;DHT22;5880;52.342;9.662;2023-05-17T14:42:38;17.50;35.30
11647;DHT22;5880;52.342;9.662;2023-05-17T14:45:05;17.50;35.00
11647;DHT22;5880;52.342;9.662;2023-05-17T14:47:32;17.50;34.80
11647;DHT22;5880;52.342;9.662;2023-05-17T14:49:58;17.50;34.70
11647;DHT22;5880;52.342;9.662;2023-05-17T14:52:24;17.30;35.00
11647;DHT22;5880;52.342;9.662;2023-05-17T14:54:50;17.30;35.20
11647;DHT22;5880;52.342;9.662;2023-05-17T14:57:15;17.30;35.30
11647;DHT22;5880;52.342;9.662;2023-05-17T14:59:41;17.30;35.50
11647;DHT22;5880;52.342;9.662;2023-05-17T15:02:09;17.30;35.80
11647;DHT22;5880;52.342;9.662;2023-05-17T15:04:35;17.70;36.00
11647;DHT22;5880;52.342;9.662;2023-05-17T15:07:01;17.30;35.80
11647;DHT22;5880;52.342;9.662;2023-05-17T15:09:27;17.40;35.60
11647;DHT22;5880;52.342;9.662;2023-05-17T15:11:55;17.40;35.50
11647;DHT22;5880;52.342;9.662;2023-05-17T15:14:21;17.40;35.50
11647;DHT22;5880;52.342;9.662;2023-05-17T15:16:50;17.30;35.60
11647;DHT22;5880;52.342;9.662;2023-05-17T15:19:17;17.30;35.50
11647;DHT22;5880;52.342;9.662;2023-05-17T15:21:43;17.20;35.40
11647;DHT22;5880;52.342;9.662;2023-05-17T15:24:10;17.20;35.40
11647;DHT22;5880;52.342;9.662;2023-05-17T15:26:36;17.10;35.50
11647;DHT22;5880;52.342;9.662;2023-05-17T15:29:02;17.00;35.40
11647;DHT22;5880;52.342;9.662;2023-05-17T15:31:28;17.00;35.10
11647;DHT22;5880;52.342;9.662;2023-05-17T15:33:54;16.90;35.30
11647;DHT22;5880;52.342;9.662;2023-05-17T15:36:21;16.90;35.50
11647;DHT22;5880;52.342;9.662;2023-05-17T15:38:47;16.90;35.40
11647;DHT22;5880;52.342;9.662;2023-05-17T15:41:14;16.90;35.50
11647;DHT22;5880;52.342;9.662;2023-05-17T15:43:41;16.90;35.80
11647;DHT22;5880;52.342;9.662;2023-05-17T15:46:08;17.00;35.90
11647;DHT22;5880;52.342;9.662;2023-05-17T15:48:33;17.00;35.70
11647;DHT22;5880;52.342;9.662;2023-05-17T15:51:00;17.00;35.90
11647;DHT22;5880;52.342;9.662;2023-05-17T15:53:28;17.10;36.00
11647;DHT22;5880;52.342;9.662;2023-05-17T15:55:54;17.10;36.00
11647;DHT22;5880;52.342;9.662;2023-05-17T15:58:22;17.10;36.00
11647;DHT22;5880;52.342;9.662;2023-05-17T16:00:49;17.10;35.70
11647;DHT22;5880;52.342;9.662;2023-05-17T16:03:15;17.10;35.50
11647;DHT22;5880;52.342;9.662;2023-05-17T16:05:42;17.00;35.50
11647;DHT22;5880;52.342;9.662;2023-05-17T16:08:08;17.00;35.60